Ana Sayfa
METAR-TAF:

METAR-TAF

Havaalanları :

Larnaka Uluslararası Havalimanı

Larnaka, Kıbrıs

Enlem: 34-53N, Boylam: 033-38E, yükseklik: 2 m

Güncel hava durumu gözlemi

Rapor saat 21:30 UTC de 15 dakika önce yapıldı.
Rüzgar kuzeybatıdan 5 kt
Sıcaklık 16°C
Nem 94%
Basınç 1020 hPa
Görüş mesafesi 10 km veya daha fazla
1500 m altında bulut yok ve kümülonimbus yok

METAR: LCLK 192130Z 31005KT CAVOK 16/15 Q1020 NOSIG

Saat: 23:45 (21:45 UTC)

Tahmin

Rapor saat 17:30 UTC de 4 saat ve 15 dakika önce yapıldı.
Ayın 19'si saat 18 UTC'den ayın 20'si saat 18 UTC'ye kadar geçerli Tahmin
Rüzgar kuzey/kuzeybatıdan 8 kt
Görüş mesafesi 10 km veya daha fazla
3500 ft yükseklikte az bulutlu
Dönüşüyor
ayın 20'si saat 08 UTC'den ayın 20'si saat 11 UTC'ye kadar
Rüzgar güney/güneydoğudan 10 kt
Dönüşüyor
ayın 20'si saat 16 UTC'den ayın 20'si saat 18 UTC'ye kadar
Rüzgar kuzey/kuzeybatıdan 7 kt

TAF: LCLK 191730Z 1918/2018 33008KT 9999 FEW035 BECMG 2008/2011 15010KT BECMG 2016/2018 33007KT

4.000'den fazla havaalanı için hava durumu gözlemleri ve tahminleri (METAR ve TAF raporları).

Kullanılabilir istasyonlar harita üzerinde sarı ve kırmızı noktalarla gösterilir.

İstasyonun adını görmek için fareyi noktanın üzerinde gezdirin.

Sonrasında hava gözlem ve tahminlerini görmek için tıklayın.

Haritayı değiştirmek için: yaklaştırmak için siyah artı işaretli yeşil düğmeye ve uzaklaştırmak için de eksi işaretli düğmeye hızla tıklayın; bitişik haritalar için yeşil okları kullanın.


METAR-TAF: